Krypton, Kentucky
Current Conditions -  °F | °C
As of 6:53 AM on Monday 24 Nov 2014 (Local Time) from KJKL Reporting Station
Clear Clear  
Wind Chill: 16°   Ceiling: Unl
Heat Index: 16°   Visibility: 10mi
Dew Point:   Wind: 8mph
Humidity: 64%   Direction: 190°S
Pressure: 29.5"   Gusts: 18mph
Location:  37.31°N, 83.34°W
Report Text: KJKL 241153Z AUTO 19007G16KT 150V280 10SM CLR 16/09 A2950 RMK AO2 SLP983 60000 70025 T01560089 10167 20150 58002
Loading
Personal Weather Stations






























Interactive Weather Map New forecast layout! Learn more

10-Day Weather Forecast

Advertisements
Track Severe Weather on mobile